4  °C
Temperature
2  °C
  Dewpoint
   Humidity
Temp | Dewpoint | Humidity
5  km/h
Wind Speed
3  mph
Wind Speed
3  kts
Wind Speed
Calm
Due North

Wind Speed
Clear
Conditions
Pressure 1024.92 (hPa) - 30.27 (in)
Visibility 6.2 (mi) - 10.0 (km)

Current Conditions
LGTS
Location 6km (3.2mi)
Metar :LGTS 252320Z VRB03KT CAVOK 04/02 Q1025 NOSIG
Sun 26th January 01:20 am

Airport
  Metar Aviation API Data Provided by https://www.checkwx.com/ CSS/SVG/PHP scripts by weather34.com © 2015-2020